sensor_id;sensor_type;location;lat;lon;timestamp;temperature;humidity
39865;DHT22;25538;48.392;9.976;2022-09-02T00:03:40;15.30;99.90
39865;DHT22;25538;48.392;9.976;2022-09-02T00:06:06;15.30;99.90
39865;DHT22;25538;48.392;9.976;2022-09-02T00:08:32;15.30;99.90
39865;DHT22;25538;48.392;9.976;2022-09-02T00:11:00;15.30;99.90
39865;DHT22;25538;48.392;9.976;2022-09-02T00:13:27;15.20;99.90
39865;DHT22;25538;48.392;9.976;2022-09-02T00:15:54;15.20;99.90
39865;DHT22;25538;48.392;9.976;2022-09-02T00:18:21;15.20;99.90
39865;DHT22;25538;48.392;9.976;2022-09-02T00:20:48;15.20;99.90
39865;DHT22;25538;48.392;9.976;2022-09-02T00:23:14;15.10;99.90
39865;DHT22;25538;48.392;9.976;2022-09-02T00:25:42;15.20;99.90
39865;DHT22;25538;48.392;9.976;2022-09-02T00:28:10;15.10;99.90
39865;DHT22;25538;48.392;9.976;2022-09-02T00:30:37;15.00;99.90
39865;DHT22;25538;48.392;9.976;2022-09-02T00:33:03;15.00;99.90
39865;DHT22;25538;48.392;9.976;2022-09-02T00:35:30;15.00;99.90
39865;DHT22;25538;48.392;9.976;2022-09-02T00:37:56;14.90;99.90
39865;DHT22;25538;48.392;9.976;2022-09-02T00:40:23;14.90;99.90
39865;DHT22;25538;48.392;9.976;2022-09-02T00:42:50;14.90;99.90
39865;DHT22;25538;48.392;9.976;2022-09-02T00:45:17;14.90;99.90
39865;DHT22;25538;48.392;9.976;2022-09-02T00:47:44;14.90;99.90
39865;DHT22;25538;48.392;9.976;2022-09-02T00:50:12;14.90;99.90
39865;DHT22;25538;48.392;9.976;2022-09-02T00:53:02;14.80;99.90
39865;DHT22;25538;48.392;9.976;2022-09-02T00:55:35;14.80;99.90
39865;DHT22;25538;48.392;9.976;2022-09-02T00:58:12;14.80;99.90
39865;DHT22;25538;48.392;9.976;2022-09-02T01:00:42;14.80;99.90
39865;DHT22;25538;48.392;9.976;2022-09-02T01:03:12;14.70;99.90
39865;DHT22;25538;48.392;9.976;2022-09-02T01:05:43;14.70;99.90
39865;DHT22;25538;48.392;9.976;2022-09-02T01:08:15;14.70;99.90
39865;DHT22;25538;48.392;9.976;2022-09-02T01:10:45;14.70;99.90
39865;DHT22;25538;48.392;9.976;2022-09-02T01:13:15;14.60;99.90
39865;DHT22;25538;48.392;9.976;2022-09-02T01:15:45;14.60;99.90
39865;DHT22;25538;48.392;9.976;2022-09-02T01:18:15;14.60;99.90
39865;DHT22;25538;48.392;9.976;2022-09-02T01:20:42;14.50;99.90
39865;DHT22;25538;48.392;9.976;2022-09-02T01:23:09;14.50;99.90
39865;DHT22;25538;48.392;9.976;2022-09-02T01:25:35;14.50;99.90
39865;DHT22;25538;48.392;9.976;2022-09-02T01:28:06;14.50;99.90
39865;DHT22;25538;48.392;9.976;2022-09-02T01:30:34;14.50;99.90
39865;DHT22;25538;48.392;9.976;2022-09-02T01:33:00;14.50;99.90
39865;DHT22;25538;48.392;9.976;2022-09-02T01:35:26;14.40;99.90
39865;DHT22;25538;48.392;9.976;2022-09-02T01:37:57;14.40;99.90
39865;DHT22;25538;48.392;9.976;2022-09-02T01:40:25;14.40;99.90
39865;DHT22;25538;48.392;9.976;2022-09-02T01:42:55;14.40;99.90
39865;DHT22;25538;48.392;9.976;2022-09-02T01:45:23;14.40;99.90
39865;DHT22;25538;48.392;9.976;2022-09-02T01:47:49;14.40;99.90
39865;DHT22;25538;48.392;9.976;2022-09-02T01:50:16;14.40;99.90
39865;DHT22;25538;48.392;9.976;2022-09-02T01:52:42;14.30;99.90
39865;DHT22;25538;48.392;9.976;2022-09-02T01:55:08;14.30;99.90
39865;DHT22;25538;48.392;9.976;2022-09-02T01:57:34;14.30;99.90
39865;DHT22;25538;48.392;9.976;2022-09-02T02:00:00;14.30;99.90
39865;DHT22;25538;48.392;9.976;2022-09-02T02:02:27;14.30;99.90
39865;DHT22;25538;48.392;9.976;2022-09-02T02:04:54;14.20;99.90
39865;DHT22;25538;48.392;9.976;2022-09-02T02:07:21;14.20;99.90
39865;DHT22;25538;48.392;9.976;2022-09-02T02:09:47;14.10;99.90
39865;DHT22;25538;48.392;9.976;2022-09-02T02:12:14;14.00;99.90
39865;DHT22;25538;48.392;9.976;2022-09-02T02:14:40;14.00;99.90
39865;DHT22;25538;48.392;9.976;2022-09-02T02:17:06;13.90;99.90
39865;DHT22;25538;48.392;9.976;2022-09-02T02:19:33;13.90;99.90
39865;DHT22;25538;48.392;9.976;2022-09-02T02:22:00;13.90;99.90
39865;DHT22;25538;48.392;9.976;2022-09-02T02:24:26;13.80;99.90
39865;DHT22;25538;48.392;9.976;2022-09-02T02:26:52;13.80;99.90
39865;DHT22;25538;48.392;9.976;2022-09-02T02:29:18;13.80;99.90
39865;DHT22;25538;48.392;9.976;2022-09-02T02:31:44;13.80;99.90
39865;DHT22;25538;48.392;9.976;2022-09-02T02:34:10;13.80;99.90
39865;DHT22;25538;48.392;9.976;2022-09-02T02:36:37;13.80;99.90
39865;DHT22;25538;48.392;9.976;2022-09-02T02:39:06;13.80;99.90
39865;DHT22;25538;48.392;9.976;2022-09-02T02:41:35;13.80;99.90
39865;DHT22;25538;48.392;9.976;2022-09-02T02:44:02;13.80;99.90
39865;DHT22;25538;48.392;9.976;2022-09-02T02:46:28;13.80;99.90
39865;DHT22;25538;48.392;9.976;2022-09-02T02:48:58;13.80;99.90
39865;DHT22;25538;48.392;9.976;2022-09-02T02:51:24;13.70;99.90
39865;DHT22;25538;48.392;9.976;2022-09-02T02:53:50;13.70;99.90
39865;DHT22;25538;48.392;9.976;2022-09-02T02:56:16;13.80;99.90
39865;DHT22;25538;48.392;9.976;2022-09-02T02:58:42;13.80;99.90
39865;DHT22;25538;48.392;9.976;2022-09-02T03:01:08;13.70;99.90
39865;DHT22;25538;48.392;9.976;2022-09-02T03:03:35;13.60;99.90
39865;DHT22;25538;48.392;9.976;2022-09-02T03:06:01;13.50;99.90
39865;DHT22;25538;48.392;9.976;2022-09-02T03:08:27;13.50;99.90
39865;DHT22;25538;48.392;9.976;2022-09-02T03:10:54;13.40;99.90
39865;DHT22;25538;48.392;9.976;2022-09-02T03:13:22;13.40;99.90
39865;DHT22;25538;48.392;9.976;2022-09-02T03:15:49;13.40;99.90
39865;DHT22;25538;48.392;9.976;2022-09-02T03:18:15;13.30;99.90
39865;DHT22;25538;48.392;9.976;2022-09-02T03:20:42;13.30;99.90
39865;DHT22;25538;48.392;9.976;2022-09-02T03:23:08;13.30;99.90
39865;DHT22;25538;48.392;9.976;2022-09-02T03:25:34;13.20;99.90
39865;DHT22;25538;48.392;9.976;2022-09-02T03:28:02;13.20;99.90
39865;DHT22;25538;48.392;9.976;2022-09-02T03:30:30;13.20;99.90
39865;DHT22;25538;48.392;9.976;2022-09-02T03:32:58;13.30;99.90
39865;DHT22;25538;48.392;9.976;2022-09-02T03:35:25;13.30;99.90
39865;DHT22;25538;48.392;9.976;2022-09-02T03:37:52;13.30;99.90
39865;DHT22;25538;48.392;9.976;2022-09-02T03:40:23;13.30;99.90
39865;DHT22;25538;48.392;9.976;2022-09-02T03:42:50;13.30;99.90
39865;DHT22;25538;48.392;9.976;2022-09-02T03:45:17;13.30;99.90
39865;DHT22;25538;48.392;9.976;2022-09-02T03:47:44;13.30;99.90
39865;DHT22;25538;48.392;9.976;2022-09-02T03:50:17;13.40;99.90
39865;DHT22;25538;48.392;9.976;2022-09-02T03:52:44;13.30;99.90
39865;DHT22;25538;48.392;9.976;2022-09-02T03:55:10;13.40;99.90
39865;DHT22;25538;48.392;9.976;2022-09-02T03:57:36;13.40;99.90
39865;DHT22;25538;48.392;9.976;2022-09-02T04:00:07;13.30;99.90
39865;DHT22;25538;48.392;9.976;2022-09-02T04:02:33;13.30;99.90
39865;DHT22;25538;48.392;9.976;2022-09-02T04:05:00;13.30;99.90
39865;DHT22;25538;48.392;9.976;2022-09-02T04:07:26;13.30;99.90
39865;DHT22;25538;48.392;9.976;2022-09-02T04:09:52;13.30;99.90
39865;DHT22;25538;48.392;9.976;2022-09-02T04:12:21;13.30;99.90
39865;DHT22;25538;48.392;9.976;2022-09-02T04:14:48;13.30;99.90
39865;DHT22;25538;48.392;9.976;2022-09-02T04:20:48;13.30;99.90
39865;DHT22;25538;48.392;9.976;2022-09-02T04:23:14;13.30;99.90
39865;DHT22;25538;48.392;9.976;2022-09-02T04:25:41;13.30;99.90
39865;DHT22;25538;48.392;9.976;2022-09-02T04:28:08;13.30;99.90
39865;DHT22;25538;48.392;9.976;2022-09-02T04:30:37;13.30;99.90
39865;DHT22;25538;48.392;9.976;2022-09-02T04:33:03;13.30;99.90
39865;DHT22;25538;48.392;9.976;2022-09-02T04:35:29;13.30;99.90
39865;DHT22;25538;48.392;9.976;2022-09-02T04:37:55;13.30;99.90
39865;DHT22;25538;48.392;9.976;2022-09-02T04:40:21;13.20;99.90
39865;DHT22;25538;48.392;9.976;2022-09-02T04:42:48;13.20;99.90
39865;DHT22;25538;48.392;9.976;2022-09-02T04:45:14;13.20;99.90
39865;DHT22;25538;48.392;9.976;2022-09-02T04:47:40;13.30;99.90
39865;DHT22;25538;48.392;9.976;2022-09-02T04:50:06;13.20;99.90
39865;DHT22;25538;48.392;9.976;2022-09-02T04:52:32;13.20;99.90
39865;DHT22;25538;48.392;9.976;2022-09-02T04:54:58;13.20;99.90
39865;DHT22;25538;48.392;9.976;2022-09-02T04:57:24;13.20;99.90
39865;DHT22;25538;48.392;9.976;2022-09-02T04:59:51;13.20;99.90
39865;DHT22;25538;48.392;9.976;2022-09-02T05:02:17;13.20;99.90
39865;DHT22;25538;48.392;9.976;2022-09-02T05:04:45;13.20;99.90
39865;DHT22;25538;48.392;9.976;2022-09-02T05:07:11;13.20;99.90
39865;DHT22;25538;48.392;9.976;2022-09-02T05:09:37;13.30;99.90
39865;DHT22;25538;48.392;9.976;2022-09-02T05:12:03;13.30;99.90
39865;DHT22;25538;48.392;9.976;2022-09-02T05:14:29;13.20;99.90
39865;DHT22;25538;48.392;9.976;2022-09-02T05:16:55;13.30;99.90
39865;DHT22;25538;48.392;9.976;2022-09-02T05:19:22;13.30;99.90
39865;DHT22;25538;48.392;9.976;2022-09-02T05:21:49;13.30;99.90
39865;DHT22;25538;48.392;9.976;2022-09-02T05:24:16;13.30;99.90
39865;DHT22;25538;48.392;9.976;2022-09-02T05:26:42;13.30;99.90
39865;DHT22;25538;48.392;9.976;2022-09-02T05:29:10;13.30;99.90
39865;DHT22;25538;48.392;9.976;2022-09-02T05:31:37;13.30;99.90
39865;DHT22;25538;48.392;9.976;2022-09-02T05:34:04;13.40;99.90
39865;DHT22;25538;48.392;9.976;2022-09-02T05:36:30;13.40;99.90
39865;DHT22;25538;48.392;9.976;2022-09-02T05:38:58;13.50;99.90
39865;DHT22;25538;48.392;9.976;2022-09-02T05:41:25;13.50;99.90
39865;DHT22;25538;48.392;9.976;2022-09-02T05:43:56;13.60;99.90
39865;DHT22;25538;48.392;9.976;2022-09-02T05:46:24;13.60;99.90
39865;DHT22;25538;48.392;9.976;2022-09-02T05:48:51;13.70;99.90
39865;DHT22;25538;48.392;9.976;2022-09-02T05:51:40;13.80;99.90
39865;DHT22;25538;48.392;9.976;2022-09-02T05:54:08;13.80;99.90
39865;DHT22;25538;48.392;9.976;2022-09-02T05:56:40;13.90;99.90
39865;DHT22;25538;48.392;9.976;2022-09-02T05:59:06;13.90;99.90
39865;DHT22;25538;48.392;9.976;2022-09-02T06:01:34;14.00;99.90
39865;DHT22;25538;48.392;9.976;2022-09-02T06:04:02;14.10;99.90
39865;DHT22;25538;48.392;9.976;2022-09-02T06:06:29;14.10;99.90
39865;DHT22;25538;48.392;9.976;2022-09-02T06:08:55;14.10;99.90
39865;DHT22;25538;48.392;9.976;2022-09-02T06:11:21;14.10;99.90
39865;DHT22;25538;48.392;9.976;2022-09-02T06:13:47;14.20;99.90
39865;DHT22;25538;48.392;9.976;2022-09-02T06:16:17;14.20;99.90
39865;DHT22;25538;48.392;9.976;2022-09-02T06:18:44;14.30;99.90
39865;DHT22;25538;48.392;9.976;2022-09-02T06:21:11;14.30;99.90
39865;DHT22;25538;48.392;9.976;2022-09-02T06:23:38;14.30;99.90
39865;DHT22;25538;48.392;9.976;2022-09-02T06:26:10;14.30;99.90
39865;DHT22;25538;48.392;9.976;2022-09-02T06:28:36;14.40;99.90
39865;DHT22;25538;48.392;9.976;2022-09-02T06:31:15;14.40;99.90
39865;DHT22;25538;48.392;9.976;2022-09-02T06:33:44;14.40;99.90
39865;DHT22;25538;48.392;9.976;2022-09-02T06:36:14;14.50;99.90
39865;DHT22;25538;48.392;9.976;2022-09-02T06:38:44;14.50;99.90
39865;DHT22;25538;48.392;9.976;2022-09-02T06:41:12;14.60;99.90
39865;DHT22;25538;48.392;9.976;2022-09-02T06:43:39;14.60;99.90
39865;DHT22;25538;48.392;9.976;2022-09-02T06:46:06;14.70;99.90
39865;DHT22;25538;48.392;9.976;2022-09-02T06:48:32;14.70;99.90
39865;DHT22;25538;48.392;9.976;2022-09-02T06:50:58;14.70;99.90
39865;DHT22;25538;48.392;9.976;2022-09-02T06:53:26;14.80;99.90
39865;DHT22;25538;48.392;9.976;2022-09-02T06:55:52;14.80;99.90
39865;DHT22;25538;48.392;9.976;2022-09-02T06:58:18;14.80;99.90
39865;DHT22;25538;48.392;9.976;2022-09-02T07:00:44;14.90;99.90
39865;DHT22;25538;48.392;9.976;2022-09-02T07:03:10;15.00;99.90
39865;DHT22;25538;48.392;9.976;2022-09-02T07:06:00;15.00;99.90
39865;DHT22;25538;48.392;9.976;2022-09-02T07:08:27;14.90;99.90
39865;DHT22;25538;48.392;9.976;2022-09-02T07:10:53;15.00;99.90
39865;DHT22;25538;48.392;9.976;2022-09-02T07:13:20;15.00;99.90
39865;DHT22;25538;48.392;9.976;2022-09-02T07:15:46;15.10;99.90
39865;DHT22;25538;48.392;9.976;2022-09-02T07:18:12;15.20;99.90
39865;DHT22;25538;48.392;9.976;2022-09-02T07:20:38;15.20;99.90
39865;DHT22;25538;48.392;9.976;2022-09-02T07:23:04;15.20;99.90
39865;DHT22;25538;48.392;9.976;2022-09-02T07:25:30;15.30;99.90
39865;DHT22;25538;48.392;9.976;2022-09-02T07:27:56;15.40;99.90
39865;DHT22;25538;48.392;9.976;2022-09-02T07:30:22;15.50;99.90
39865;DHT22;25538;48.392;9.976;2022-09-02T07:32:48;15.60;99.90
39865;DHT22;25538;48.392;9.976;2022-09-02T07:35:15;15.80;99.90
39865;DHT22;25538;48.392;9.976;2022-09-02T07:37:42;16.00;99.90
39865;DHT22;25538;48.392;9.976;2022-09-02T07:40:08;16.20;99.90
39865;DHT22;25538;48.392;9.976;2022-09-02T07:42:36;16.50;99.90
39865;DHT22;25538;48.392;9.976;2022-09-02T07:45:02;16.70;99.90
39865;DHT22;25538;48.392;9.976;2022-09-02T07:47:29;16.90;99.90
39865;DHT22;25538;48.392;9.976;2022-09-02T07:49:55;17.20;99.90
39865;DHT22;25538;48.392;9.976;2022-09-02T07:52:21;17.40;99.90
39865;DHT22;25538;48.392;9.976;2022-09-02T07:54:47;17.80;99.90
39865;DHT22;25538;48.392;9.976;2022-09-02T07:57:13;18.20;99.90
39865;DHT22;25538;48.392;9.976;2022-09-02T07:59:39;18.30;99.90
39865;DHT22;25538;48.392;9.976;2022-09-02T08:02:05;18.50;99.90
39865;DHT22;25538;48.392;9.976;2022-09-02T08:04:31;18.60;99.90
39865;DHT22;25538;48.392;9.976;2022-09-02T08:06:57;18.70;99.90
39865;DHT22;25538;48.392;9.976;2022-09-02T08:09:23;19.10;99.90
39865;DHT22;25538;48.392;9.976;2022-09-02T08:11:50;19.60;99.90
39865;DHT22;25538;48.392;9.976;2022-09-02T08:14:20;20.00;99.90
39865;DHT22;25538;48.392;9.976;2022-09-02T08:16:49;20.30;99.90
39865;DHT22;25538;48.392;9.976;2022-09-02T08:19:15;20.60;99.90
39865;DHT22;25538;48.392;9.976;2022-09-02T08:21:41;20.70;99.90
39865;DHT22;25538;48.392;9.976;2022-09-02T08:24:07;20.50;99.90
39865;DHT22;25538;48.392;9.976;2022-09-02T08:26:34;20.90;99.90
39865;DHT22;25538;48.392;9.976;2022-09-02T08:29:06;21.30;99.90
39865;DHT22;25538;48.392;9.976;2022-09-02T08:31:33;21.50;99.90
39865;DHT22;25538;48.392;9.976;2022-09-02T08:33:59;21.60;99.90
39865;DHT22;25538;48.392;9.976;2022-09-02T08:36:26;22.20;99.90
39865;DHT22;25538;48.392;9.976;2022-09-02T08:38:53;22.70;99.90
39865;DHT22;25538;48.392;9.976;2022-09-02T08:44:19;23.80;99.90
39865;DHT22;25538;48.392;9.976;2022-09-02T08:46:48;24.00;99.90
39865;DHT22;25538;48.392;9.976;2022-09-02T08:49:23;24.20;99.90
39865;DHT22;25538;48.392;9.976;2022-09-02T08:51:56;24.50;99.90
39865;DHT22;25538;48.392;9.976;2022-09-02T08:54:52;24.60;98.60
39865;DHT22;25538;48.392;9.976;2022-09-02T08:57:21;24.80;96.90
39865;DHT22;25538;48.392;9.976;2022-09-02T08:59:50;25.30;94.50
39865;DHT22;25538;48.392;9.976;2022-09-02T09:02:41;25.50;94.40
39865;DHT22;25538;48.392;9.976;2022-09-02T09:10:58;26.80;88.80
39865;DHT22;25538;48.392;9.976;2022-09-02T09:19:11;27.70;79.70
39865;DHT22;25538;48.392;9.976;2022-09-02T09:21:39;27.70;76.10
39865;DHT22;25538;48.392;9.976;2022-09-02T09:26:44;27.50;76.00
39865;DHT22;25538;48.392;9.976;2022-09-02T09:29:12;27.80;73.90
39865;DHT22;25538;48.392;9.976;2022-09-02T09:31:38;28.70;69.80
39865;DHT22;25538;48.392;9.976;2022-09-02T09:34:07;28.70;68.70
39865;DHT22;25538;48.392;9.976;2022-09-02T09:39:30;29.30;65.40
39865;DHT22;25538;48.392;9.976;2022-09-02T09:42:27;29.60;61.50
39865;DHT22;25538;48.392;9.976;2022-09-02T09:44:54;30.00;60.20
39865;DHT22;25538;48.392;9.976;2022-09-02T09:47:23;29.70;58.90
39865;DHT22;25538;48.392;9.976;2022-09-02T09:49:52;29.70;58.70
39865;DHT22;25538;48.392;9.976;2022-09-02T09:52:29;30.30;58.40
39865;DHT22;25538;48.392;9.976;2022-09-02T09:55:21;30.60;56.20
39865;DHT22;25538;48.392;9.976;2022-09-02T09:57:49;30.60;55.30
39865;DHT22;25538;48.392;9.976;2022-09-02T10:00:36;30.30;55.60
39865;DHT22;25538;48.392;9.976;2022-09-02T10:03:04;30.20;54.60
39865;DHT22;25538;48.392;9.976;2022-09-02T10:05:38;30.30;55.90
39865;DHT22;25538;48.392;9.976;2022-09-02T10:08:26;30.70;54.30
39865;DHT22;25538;48.392;9.976;2022-09-02T10:11:03;31.00;53.30
39865;DHT22;25538;48.392;9.976;2022-09-02T10:13:32;31.50;52.60
39865;DHT22;25538;48.392;9.976;2022-09-02T10:18:54;31.80;50.70
39865;DHT22;25538;48.392;9.976;2022-09-02T10:25:11;32.30;50.00
39865;DHT22;25538;48.392;9.976;2022-09-02T10:28:08;32.50;47.60
39865;DHT22;25538;48.392;9.976;2022-09-02T10:30:19;32.70;48.00
39865;DHT22;25538;48.392;9.976;2022-09-02T10:36:16;32.00;47.40
39865;DHT22;25538;48.392;9.976;2022-09-02T10:38:48;32.30;46.40
39865;DHT22;25538;48.392;9.976;2022-09-02T10:41:44;33.00;44.70
39865;DHT22;25538;48.392;9.976;2022-09-02T10:44:26;34.20;44.40
39865;DHT22;25538;48.392;9.976;2022-09-02T10:47:13;35.10;40.90
39865;DHT22;25538;48.392;9.976;2022-09-02T10:50:16;34.10;42.20
39865;DHT22;25538;48.392;9.976;2022-09-02T10:55:43;34.60;40.30
39865;DHT22;25538;48.392;9.976;2022-09-02T11:01:06;35.60;40.10
39865;DHT22;25538;48.392;9.976;2022-09-02T11:03:42;37.00;38.50
39865;DHT22;25538;48.392;9.976;2022-09-02T11:06:20;36.80;37.90
39865;DHT22;25538;48.392;9.976;2022-09-02T11:09:05;37.20;36.40
39865;DHT22;25538;48.392;9.976;2022-09-02T11:12:09;37.60;36.50
39865;DHT22;25538;48.392;9.976;2022-09-02T11:14:52;37.80;35.80
39865;DHT22;25538;48.392;9.976;2022-09-02T11:22:57;37.20;35.30
39865;DHT22;25538;48.392;9.976;2022-09-02T11:25:29;37.20;35.00
39865;DHT22;25538;48.392;9.976;2022-09-02T11:31:06;38.20;33.30
39865;DHT22;25538;48.392;9.976;2022-09-02T11:36:20;38.40;33.20
39865;DHT22;25538;48.392;9.976;2022-09-02T11:46:42;40.20;31.00
39865;DHT22;25538;48.392;9.976;2022-09-02T11:52:52;37.50;33.20
39865;DHT22;25538;48.392;9.976;2022-09-02T11:55:22;37.70;33.10
39865;DHT22;25538;48.392;9.976;2022-09-02T11:57:51;38.00;33.20
39865;DHT22;25538;48.392;9.976;2022-09-02T12:00:29;38.30;32.40
39865;DHT22;25538;48.392;9.976;2022-09-02T12:11:01;39.70;30.60
39865;DHT22;25538;48.392;9.976;2022-09-02T12:21:33;38.80;30.20
39865;DHT22;25538;48.392;9.976;2022-09-02T12:31:50;38.80;30.50
39865;DHT22;25538;48.392;9.976;2022-09-02T12:36:46;37.60;31.10
39865;DHT22;25538;48.392;9.976;2022-09-02T12:42:21;38.10;32.30
39865;DHT22;25538;48.392;9.976;2022-09-02T12:47:48;39.50;30.00
39865;DHT22;25538;48.392;9.976;2022-09-02T12:56:32;40.00;30.00
39865;DHT22;25538;48.392;9.976;2022-09-02T12:58:53;40.20;29.00
39865;DHT22;25538;48.392;9.976;2022-09-02T13:01:46;40.10;29.60
39865;DHT22;25538;48.392;9.976;2022-09-02T13:18:43;38.00;31.10
39865;DHT22;25538;48.392;9.976;2022-09-02T13:22:12;38.90;30.50
39865;DHT22;25538;48.392;9.976;2022-09-02T13:33:28;38.70;29.80
39865;DHT22;25538;48.392;9.976;2022-09-02T13:35:55;37.90;30.10
39865;DHT22;25538;48.392;9.976;2022-09-02T13:38:25;37.50;30.60
39865;DHT22;25538;48.392;9.976;2022-09-02T13:40:51;37.60;31.30
39865;DHT22;25538;48.392;9.976;2022-09-02T13:43:20;37.70;31.60
39865;DHT22;25538;48.392;9.976;2022-09-02T13:45:48;38.50;30.40
39865;DHT22;25538;48.392;9.976;2022-09-02T13:48:33;38.80;29.90
39865;DHT22;25538;48.392;9.976;2022-09-02T13:51:22;38.70;29.60
39865;DHT22;25538;48.392;9.976;2022-09-02T13:53:48;38.60;30.40
39865;DHT22;25538;48.392;9.976;2022-09-02T13:56:16;39.20;30.60
39865;DHT22;25538;48.392;9.976;2022-09-02T13:58:54;39.70;29.70
39865;DHT22;25538;48.392;9.976;2022-09-02T14:03:55;41.30;28.70
39865;DHT22;25538;48.392;9.976;2022-09-02T14:06:29;41.30;28.80
39865;DHT22;25538;48.392;9.976;2022-09-02T14:09:00;41.30;28.40
39865;DHT22;25538;48.392;9.976;2022-09-02T14:11:37;40.50;28.70
39865;DHT22;25538;48.392;9.976;2022-09-02T14:14:04;40.10;29.30
39865;DHT22;25538;48.392;9.976;2022-09-02T14:16:32;40.60;28.70
39865;DHT22;25538;48.392;9.976;2022-09-02T14:19:07;40.20;29.00
39865;DHT22;25538;48.392;9.976;2022-09-02T14:21:35;39.30;29.80
39865;DHT22;25538;48.392;9.976;2022-09-02T14:24:01;39.50;30.00
39865;DHT22;25538;48.392;9.976;2022-09-02T14:26:41;40.00;29.60
39865;DHT22;25538;48.392;9.976;2022-09-02T14:29:12;41.10;29.00
39865;DHT22;25538;48.392;9.976;2022-09-02T14:31:39;41.50;28.30
39865;DHT22;25538;48.392;9.976;2022-09-02T14:34:35;40.90;28.60
39865;DHT22;25538;48.392;9.976;2022-09-02T14:37:23;40.50;28.70
39865;DHT22;25538;48.392;9.976;2022-09-02T14:40:07;39.60;30.20
39865;DHT22;25538;48.392;9.976;2022-09-02T14:42:50;39.30;29.60
39865;DHT22;25538;48.392;9.976;2022-09-02T14:45:25;39.20;30.00
39865;DHT22;25538;48.392;9.976;2022-09-02T14:47:52;39.70;29.50
39865;DHT22;25538;48.392;9.976;2022-09-02T14:50:22;39.50;29.20
39865;DHT22;25538;48.392;9.976;2022-09-02T14:52:54;39.10;29.50
39865;DHT22;25538;48.392;9.976;2022-09-02T14:55:51;39.50;29.40
39865;DHT22;25538;48.392;9.976;2022-09-02T14:58:21;39.30;29.60
39865;DHT22;25538;48.392;9.976;2022-09-02T15:00:52;39.00;29.90
39865;DHT22;25538;48.392;9.976;2022-09-02T15:03:21;39.00;29.40
39865;DHT22;25538;48.392;9.976;2022-09-02T15:05:48;37.90;30.00
39865;DHT22;25538;48.392;9.976;2022-09-02T15:08:14;36.70;30.80
39865;DHT22;25538;48.392;9.976;2022-09-02T15:10:41;36.10;31.10
39865;DHT22;25538;48.392;9.976;2022-09-02T15:13:45;36.40;31.30
39865;DHT22;25538;48.392;9.976;2022-09-02T15:16:04;37.10;31.10
39865;DHT22;25538;48.392;9.976;2022-09-02T15:18:30;37.10;30.60
39865;DHT22;25538;48.392;9.976;2022-09-02T15:20:56;36.30;31.10
39865;DHT22;25538;48.392;9.976;2022-09-02T15:23:22;35.70;31.40
39865;DHT22;25538;48.392;9.976;2022-09-02T15:25:48;35.60;31.50
39865;DHT22;25538;48.392;9.976;2022-09-02T15:28:14;35.80;31.40
39865;DHT22;25538;48.392;9.976;2022-09-02T15:30:40;35.80;31.30
39865;DHT22;25538;48.392;9.976;2022-09-02T15:33:07;36.00;31.60
39865;DHT22;25538;48.392;9.976;2022-09-02T15:35:34;36.00;31.90
39865;DHT22;25538;48.392;9.976;2022-09-02T15:38:01;35.90;31.80
39865;DHT22;25538;48.392;9.976;2022-09-02T15:40:28;35.50;32.50
39865;DHT22;25538;48.392;9.976;2022-09-02T15:42:54;35.30;33.20
39865;DHT22;25538;48.392;9.976;2022-09-02T15:45:22;34.80;33.90
39865;DHT22;25538;48.392;9.976;2022-09-02T15:47:48;34.70;33.10
39865;DHT22;25538;48.392;9.976;2022-09-02T15:50:13;34.10;33.90
39865;DHT22;25538;48.392;9.976;2022-09-02T15:52:39;33.60;34.20
39865;DHT22;25538;48.392;9.976;2022-09-02T15:55:06;33.20;34.90
39865;DHT22;25538;48.392;9.976;2022-09-02T15:57:32;31.80;36.50
39865;DHT22;25538;48.392;9.976;2022-09-02T15:59:58;30.90;37.60
39865;DHT22;25538;48.392;9.976;2022-09-02T16:02:24;30.20;38.40
39865;DHT22;25538;48.392;9.976;2022-09-02T16:04:50;29.80;38.90
39865;DHT22;25538;48.392;9.976;2022-09-02T16:07:16;29.70;39.70
39865;DHT22;25538;48.392;9.976;2022-09-02T16:09:42;28.70;40.60
39865;DHT22;25538;48.392;9.976;2022-09-02T16:12:08;27.80;42.70
39865;DHT22;25538;48.392;9.976;2022-09-02T16:14:35;27.10;44.00
39865;DHT22;25538;48.392;9.976;2022-09-02T16:17:01;27.00;44.40
39865;DHT22;25538;48.392;9.976;2022-09-02T16:19:27;26.80;44.80
39865;DHT22;25538;48.392;9.976;2022-09-02T16:21:54;26.60;45.30
39865;DHT22;25538;48.392;9.976;2022-09-02T16:24:20;26.40;45.60
39865;DHT22;25538;48.392;9.976;2022-09-02T16:26:48;26.10;46.50
39865;DHT22;25538;48.392;9.976;2022-09-02T16:29:15;25.90;47.20
39865;DHT22;25538;48.392;9.976;2022-09-02T16:31:46;25.70;46.90
39865;DHT22;25538;48.392;9.976;2022-09-02T16:34:14;25.70;47.10
39865;DHT22;25538;48.392;9.976;2022-09-02T16:36:43;25.80;46.90
39865;DHT22;25538;48.392;9.976;2022-09-02T16:39:10;25.60;47.20
39865;DHT22;25538;48.392;9.976;2022-09-02T16:41:42;25.50;47.40
39865;DHT22;25538;48.392;9.976;2022-09-02T16:44:11;25.10;48.40
39865;DHT22;25538;48.392;9.976;2022-09-02T16:46:38;25.00;48.80
39865;DHT22;25538;48.392;9.976;2022-09-02T16:49:08;25.00;48.90
39865;DHT22;25538;48.392;9.976;2022-09-02T16:51:35;24.90;49.00
39865;DHT22;25538;48.392;9.976;2022-09-02T16:54:03;24.80;49.30
39865;DHT22;25538;48.392;9.976;2022-09-02T16:56:30;24.70;49.60
39865;DHT22;25538;48.392;9.976;2022-09-02T16:59:00;24.80;49.80
39865;DHT22;25538;48.392;9.976;2022-09-02T17:01:27;24.80;49.50
39865;DHT22;25538;48.392;9.976;2022-09-02T17:03:54;24.70;49.50
39865;DHT22;25538;48.392;9.976;2022-09-02T17:06:20;24.60;49.90
39865;DHT22;25538;48.392;9.976;2022-09-02T17:08:46;24.60;50.10
39865;DHT22;25538;48.392;9.976;2022-09-02T17:11:16;24.60;50.10
39865;DHT22;25538;48.392;9.976;2022-09-02T17:13:55;24.50;50.30
39865;DHT22;25538;48.392;9.976;2022-09-02T17:16:24;24.30;50.20
39865;DHT22;25538;48.392;9.976;2022-09-02T17:18:51;24.10;50.50
39865;DHT22;25538;48.392;9.976;2022-09-02T17:21:30;23.90;51.00
39865;DHT22;25538;48.392;9.976;2022-09-02T17:23:59;23.80;51.50
39865;DHT22;25538;48.392;9.976;2022-09-02T17:26:26;23.60;51.80
39865;DHT22;25538;48.392;9.976;2022-09-02T17:28:54;23.50;53.00
39865;DHT22;25538;48.392;9.976;2022-09-02T17:33:51;23.40;52.40
39865;DHT22;25538;48.392;9.976;2022-09-02T17:36:18;23.30;52.30
39865;DHT22;25538;48.392;9.976;2022-09-02T17:38:45;23.20;52.60
39865;DHT22;25538;48.392;9.976;2022-09-02T17:41:12;23.20;52.70
39865;DHT22;25538;48.392;9.976;2022-09-02T17:43:57;23.10;52.70
39865;DHT22;25538;48.392;9.976;2022-09-02T17:46:23;23.10;53.10
39865;DHT22;25538;48.392;9.976;2022-09-02T17:48:49;23.00;53.60
39865;DHT22;25538;48.392;9.976;2022-09-02T17:51:15;22.90;53.60
39865;DHT22;25538;48.392;9.976;2022-09-02T17:53:43;22.90;53.70
39865;DHT22;25538;48.392;9.976;2022-09-02T17:59:34;22.70;54.00